createdAt,value
2018-01-30T00:08:31.474Z,0
2018-01-30T00:18:31.499Z,0
2018-01-30T00:28:31.690Z,0
2018-01-30T00:38:31.519Z,0
2018-01-30T00:48:31.720Z,0
2018-01-30T00:58:31.498Z,0
2018-01-30T01:08:31.584Z,0
2018-01-30T01:18:31.542Z,0
2018-01-30T01:28:31.529Z,0
2018-01-30T01:38:31.541Z,0
2018-01-30T01:48:31.548Z,0
2018-01-30T01:58:31.491Z,0
2018-01-30T02:08:31.555Z,0
2018-01-30T02:18:41.272Z,0
2018-01-30T02:28:31.614Z,0
2018-01-30T02:38:31.543Z,0
2018-01-30T02:48:31.605Z,0
2018-01-30T02:58:31.578Z,0
2018-01-30T03:08:31.629Z,0
2018-01-30T03:18:31.603Z,0
2018-01-30T03:28:31.674Z,0
2018-01-30T03:38:31.610Z,0
2018-01-30T03:48:31.580Z,0
2018-01-30T03:58:31.634Z,0
2018-01-30T04:08:31.581Z,0
2018-01-30T04:18:31.673Z,0
2018-01-30T04:28:31.655Z,0
2018-01-30T04:38:31.729Z,0
2018-01-30T04:48:31.694Z,0
2018-01-30T04:58:31.700Z,0
2018-01-30T05:08:31.648Z,0
2018-01-30T05:18:31.710Z,0
2018-01-30T05:28:31.693Z,0
2018-01-30T05:38:31.647Z,0
2018-01-30T05:48:31.728Z,0
2018-01-30T05:58:31.735Z,0
2018-01-30T06:08:31.749Z,0
2018-01-30T06:18:31.668Z,0
2018-01-30T06:28:31.783Z,0
2018-01-30T06:38:31.715Z,0
2018-01-30T06:48:31.785Z,0
2018-01-30T06:58:31.778Z,0
2018-01-30T07:08:31.744Z,0
2018-01-30T07:18:31.826Z,5
2018-01-30T07:28:31.753Z,10
2018-01-30T07:38:31.792Z,15
2018-01-30T07:48:31.751Z,25
2018-01-30T07:58:31.834Z,35
2018-01-30T08:08:31.824Z,30
2018-01-30T08:18:31.866Z,40
2018-01-30T08:28:31.854Z,50
2018-01-30T08:38:31.874Z,45
2018-01-30T08:48:31.861Z,55
2018-01-30T08:58:31.878Z,70
2018-01-30T09:08:31.912Z,100
2018-01-30T09:18:31.849Z,80
2018-01-30T09:28:31.886Z,95
2018-01-30T09:38:31.869Z,95
2018-01-30T09:48:33.878Z,115
2018-01-30T09:58:31.920Z,100
2018-01-30T10:08:31.940Z,160
2018-01-30T10:18:31.937Z,175
2018-01-30T10:28:43.150Z,170
2018-01-30T10:38:43.950Z,160
2018-01-30T10:48:31.966Z,155
2018-01-30T10:58:31.959Z,110
2018-01-30T11:08:32.017Z,150
2018-01-30T11:18:32.016Z,95
2018-01-30T11:28:32.030Z,120
2018-01-30T11:38:32.177Z,105
2018-01-30T11:48:31.944Z,120
2018-01-30T11:58:31.980Z,105
2018-01-30T12:08:31.980Z,125
2018-01-30T12:18:31.961Z,100
2018-01-30T12:28:31.982Z,110
2018-01-30T12:38:32.083Z,115
2018-01-30T12:48:32.061Z,100
2018-01-30T12:58:32.620Z,110
2018-01-30T13:08:32.039Z,135
2018-01-30T13:18:32.109Z,120
2018-01-30T13:28:32.093Z,95
2018-01-30T13:38:32.142Z,90
2018-01-30T13:48:32.061Z,80
2018-01-30T13:58:32.153Z,90
2018-01-30T14:08:32.098Z,65
2018-01-30T14:18:32.172Z,80
2018-01-30T14:28:32.172Z,85
2018-01-30T14:38:32.101Z,70
2018-01-30T14:48:32.192Z,60
2018-01-30T14:58:32.237Z,50
2018-01-30T15:08:32.209Z,45
2018-01-30T15:18:32.276Z,40
2018-01-30T15:28:32.226Z,35
2018-01-30T15:38:41.320Z,25
2018-01-30T15:48:32.243Z,15
2018-01-30T16:08:34.163Z,5
2018-01-30T16:18:32.232Z,0
2018-01-30T16:28:38.331Z,0
2018-01-30T16:39:02.187Z,0
2018-01-30T16:48:32.232Z,0
2018-01-30T16:58:32.238Z,0
2018-01-30T17:08:32.296Z,0
2018-01-30T17:18:32.330Z,0
2018-01-30T17:28:32.633Z,0
2018-01-30T17:38:32.554Z,0
2018-01-30T17:48:32.871Z,0
2018-01-30T17:58:32.689Z,0
2018-01-30T18:08:32.356Z,0
2018-01-30T18:18:32.437Z,0
2018-01-30T18:28:32.388Z,0
2018-01-30T18:38:32.375Z,0
2018-01-30T18:48:33.743Z,0
2018-01-30T18:58:32.439Z,0
2018-01-30T19:08:32.442Z,0
2018-01-30T19:18:32.553Z,0
2018-01-30T19:28:32.439Z,0
2018-01-30T19:38:32.697Z,0
2018-01-30T19:48:32.363Z,0
2018-01-30T19:58:32.404Z,0
2018-01-30T20:08:32.443Z,0
2018-01-30T20:18:32.468Z,0
2018-01-30T20:28:32.470Z,0
2018-01-30T20:38:32.592Z,0
2018-01-30T20:48:33.845Z,0
2018-01-30T20:58:32.611Z,0
2018-01-30T21:08:32.544Z,0
2018-01-30T21:18:32.535Z,0
2018-01-30T21:28:32.537Z,0
2018-01-30T21:38:32.904Z,0
2018-01-30T21:48:32.565Z,0
2018-01-30T21:58:32.564Z,0
2018-01-30T22:08:32.771Z,0
2018-01-30T22:18:32.589Z,0
2018-01-30T22:28:32.589Z,0
2018-01-30T22:38:32.763Z,0
